sensor_id;sensor_type;location;lat;lon;timestamp;pressure;altitude;pressure_sealevel;temperature;humidity
31096;BME280;17749;51.962;8.560;2023-01-31T06:01:39;100571.63;;;3.16;100.00
31096;BME280;17749;51.962;8.560;2023-01-31T06:04:09;100571.59;;;3.19;100.00
31096;BME280;17749;51.962;8.560;2023-01-31T06:06:38;100579.50;;;3.21;100.00
31096;BME280;17749;51.962;8.560;2023-01-31T06:09:05;100568.97;;;3.21;100.00
31096;BME280;17749;51.962;8.560;2023-01-31T06:11:46;100576.00;;;3.28;100.00
31096;BME280;17749;51.962;8.560;2023-01-31T06:14:18;100572.47;;;3.29;100.00
31096;BME280;17749;51.962;8.560;2023-01-31T06:16:50;100577.72;;;3.32;100.00
31096;BME280;17749;51.962;8.560;2023-01-31T06:19:19;100565.44;;;3.31;100.00
31096;BME280;17749;51.962;8.560;2023-01-31T06:21:50;100556.69;;;3.27;100.00
31096;BME280;17749;51.962;8.560;2023-01-31T06:24:18;100566.31;;;3.30;100.00
31096;BME280;17749;51.962;8.560;2023-01-31T06:26:48;100563.72;;;3.22;100.00
31096;BME280;17749;51.962;8.560;2023-01-31T06:29:15;100558.44;;;3.33;100.00
31096;BME280;17749;51.962;8.560;2023-01-31T06:31:43;100561.06;;;3.33;100.00
31096;BME280;17749;51.962;8.560;2023-01-31T06:34:10;100560.19;;;3.31;100.00
31096;BME280;17749;51.962;8.560;2023-01-31T06:36:37;100549.66;;;3.31;100.00
31096;BME280;17749;51.962;8.560;2023-01-31T06:39:04;100563.66;;;3.39;100.00
31096;BME280;17749;51.962;8.560;2023-01-31T06:41:31;100562.78;;;3.42;100.00
31096;BME280;17749;51.962;8.560;2023-01-31T06:43:58;100554.88;;;3.37;100.00
31096;BME280;17749;51.962;8.560;2023-01-31T06:46:25;100553.13;;;3.41;100.00
31096;BME280;17749;51.962;8.560;2023-01-31T06:48:51;100547.84;;;3.38;100.00
31096;BME280;17749;51.962;8.560;2023-01-31T06:51:18;100551.38;;;3.38;100.00
31096;BME280;17749;51.962;8.560;2023-01-31T06:53:45;100545.22;;;3.39;100.00
31096;BME280;17749;51.962;8.560;2023-01-31T06:56:11;100551.34;;;3.44;100.00
31096;BME280;17749;51.962;8.560;2023-01-31T06:58:38;100549.63;;;3.43;100.00
31096;BME280;17749;51.962;8.560;2023-01-31T07:01:07;100544.34;;;3.43;100.00
31096;BME280;17749;51.962;8.560;2023-01-31T07:03:34;100540.81;;;3.44;100.00
31096;BME280;17749;51.962;8.560;2023-01-31T07:06:01;100549.56;;;3.49;100.00
31096;BME280;17749;51.962;8.560;2023-01-31T07:08:28;100546.91;;;3.51;100.00
31096;BME280;17749;51.962;8.560;2023-01-31T07:11:00;100554.81;;;3.56;100.00
31096;BME280;17749;51.962;8.560;2023-01-31T07:13:27;100553.06;;;3.55;100.00
31096;BME280;17749;51.962;8.560;2023-01-31T07:15:55;100549.53;;;3.56;100.00
31096;BME280;17749;51.962;8.560;2023-01-31T07:18:22;100550.41;;;3.61;100.00
31096;BME280;17749;51.962;8.560;2023-01-31T07:20:49;100529.34;;;3.59;100.00
31096;BME280;17749;51.962;8.560;2023-01-31T07:23:16;100531.09;;;3.62;100.00
31096;BME280;17749;51.962;8.560;2023-01-31T07:25:43;100530.22;;;3.60;100.00
31096;BME280;17749;51.962;8.560;2023-01-31T07:28:10;100529.28;;;3.68;100.00
31096;BME280;17749;51.962;8.560;2023-01-31T07:30:37;100513.53;;;3.67;100.00
31096;BME280;17749;51.962;8.560;2023-01-31T07:33:05;100516.16;;;3.61;100.00
31096;BME280;17749;51.962;8.560;2023-01-31T07:35:32;100499.44;;;3.66;100.00
31096;BME280;17749;51.962;8.560;2023-01-31T07:37:59;100515.25;;;3.69;100.00
31096;BME280;17749;51.962;8.560;2023-01-31T07:40:25;100507.34;;;3.68;100.00
31096;BME280;17749;51.962;8.560;2023-01-31T07:42:57;100499.47;;;3.65;100.00
31096;BME280;17749;51.962;8.560;2023-01-31T07:45:23;100503.81;;;3.70;100.00
31096;BME280;17749;51.962;8.560;2023-01-31T07:47:51;100503.81;;;3.72;100.00
31096;BME280;17749;51.962;8.560;2023-01-31T07:50:18;100505.56;;;3.71;100.00
31096;BME280;17749;51.962;8.560;2023-01-31T07:52:44;100496.78;;;3.74;100.00
31096;BME280;17749;51.962;8.560;2023-01-31T07:55:11;100501.13;;;3.80;100.00
31096;BME280;17749;51.962;8.560;2023-01-31T07:57:38;100512.56;;;3.80;100.00
31096;BME280;17749;51.962;8.560;2023-01-31T08:00:05;100506.41;;;3.83;100.00
31096;BME280;17749;51.962;8.560;2023-01-31T08:02:52;100492.34;;;3.79;100.00
31096;BME280;17749;51.962;8.560;2023-01-31T08:05:37;100491.44;;;3.85;100.00
31096;BME280;17749;51.962;8.560;2023-01-31T08:08:04;100487.06;;;3.85;100.00
31096;BME280;17749;51.962;8.560;2023-01-31T08:10:37;100489.66;;;3.88;100.00
31096;BME280;17749;51.962;8.560;2023-01-31T08:13:04;100482.63;;;3.93;100.00
31096;BME280;17749;51.962;8.560;2023-01-31T08:15:32;100471.16;;;3.98;100.00
31096;BME280;17749;51.962;8.560;2023-01-31T08:17:59;100465.00;;;3.99;100.00
31096;BME280;17749;51.962;8.560;2023-01-31T08:20:26;100454.47;;;3.95;100.00
31096;BME280;17749;51.962;8.560;2023-01-31T08:22:52;100469.34;;;4.03;100.00
31096;BME280;17749;51.962;8.560;2023-01-31T08:25:19;100460.56;;;4.05;100.00
31096;BME280;17749;51.962;8.560;2023-01-31T08:27:46;100452.66;;;4.05;100.00
31096;BME280;17749;51.962;8.560;2023-01-31T08:30:13;100450.88;;;4.07;100.00
31096;BME280;17749;51.962;8.560;2023-01-31T08:32:39;100457.03;;;4.08;100.00
31096;BME280;17749;51.962;8.560;2023-01-31T08:35:06;100457.91;;;4.07;100.00
31096;BME280;17749;51.962;8.560;2023-01-31T08:37:33;100435.91;;;4.12;100.00
31096;BME280;17749;51.962;8.560;2023-01-31T08:40:00;100443.81;;;4.11;100.00
31096;BME280;17749;51.962;8.560;2023-01-31T08:42:27;100434.16;;;4.08;100.00
31096;BME280;17749;51.962;8.560;2023-01-31T08:44:54;100439.41;;;4.13;100.00
31096;BME280;17749;51.962;8.560;2023-01-31T08:47:21;100447.28;;;4.16;100.00
31096;BME280;17749;51.962;8.560;2023-01-31T08:49:49;100458.69;;;4.20;100.00
31096;BME280;17749;51.962;8.560;2023-01-31T08:52:15;100443.78;;;4.17;100.00
31096;BME280;17749;51.962;8.560;2023-01-31T08:54:42;100440.22;;;4.21;100.00
31096;BME280;17749;51.962;8.560;2023-01-31T08:57:08;100445.50;;;4.18;100.00
31096;BME280;17749;51.962;8.560;2023-01-31T08:59:35;100437.59;;;4.20;100.00
31096;BME280;17749;51.962;8.560;2023-01-31T09:02:01;100441.09;;;4.18;100.00
31096;BME280;17749;51.962;8.560;2023-01-31T09:04:28;100444.72;;;4.08;100.00
31096;BME280;17749;51.962;8.560;2023-01-31T09:06:55;100437.69;;;4.09;100.00
31096;BME280;17749;51.962;8.560;2023-01-31T09:09:22;100436.81;;;4.10;100.00
31096;BME280;17749;51.962;8.560;2023-01-31T09:11:50;100437.69;;;4.07;100.00
31096;BME280;17749;51.962;8.560;2023-01-31T09:14:17;100439.41;;;4.14;100.00
31096;BME280;17749;51.962;8.560;2023-01-31T09:16:43;100431.56;;;4.07;100.00
31096;BME280;17749;51.962;8.560;2023-01-31T09:19:12;100431.56;;;4.07;100.00
31096;BME280;17749;51.962;8.560;2023-01-31T09:21:38;100425.44;;;4.02;100.00
31096;BME280;17749;51.962;8.560;2023-01-31T09:24:05;100431.63;;;3.99;100.00
31096;BME280;17749;51.962;8.560;2023-01-31T09:26:32;100430.78;;;3.92;100.00
31096;BME280;17749;51.962;8.560;2023-01-31T09:28:58;100418.50;;;3.93;100.00
31096;BME280;17749;51.962;8.560;2023-01-31T09:31:27;100416.72;;;3.97;100.00
31096;BME280;17749;51.962;8.560;2023-01-31T09:33:54;100415.00;;;3.89;100.00
31096;BME280;17749;51.962;8.560;2023-01-31T09:36:22;100406.22;;;3.90;100.00
31096;BME280;17749;51.962;8.560;2023-01-31T09:38:54;100397.47;;;3.82;100.00
31096;BME280;17749;51.962;8.560;2023-01-31T09:41:27;100402.75;;;3.82;100.00
31096;BME280;17749;51.962;8.560;2023-01-31T09:46:48;100406.25;;;3.86;100.00
31096;BME280;17749;51.962;8.560;2023-01-31T09:49:30;100403.66;;;3.81;100.00
31096;BME280;17749;51.962;8.560;2023-01-31T09:52:00;100401.00;;;3.86;100.00
31096;BME280;17749;51.962;8.560;2023-01-31T09:54:31;100395.81;;;3.75;100.00
31096;BME280;17749;51.962;8.560;2023-01-31T10:02:29;100396.56;;;3.89;100.00
31096;BME280;17749;51.962;8.560;2023-01-31T10:10:26;100392.19;;;3.88;100.00
31096;BME280;17749;51.962;8.560;2023-01-31T10:13:03;100386.00;;;3.89;100.00
31096;BME280;17749;51.962;8.560;2023-01-31T10:15:43;100394.81;;;3.88;100.00
31096;BME280;17749;51.962;8.560;2023-01-31T10:18:28;100382.50;;;3.87;100.00
31096;BME280;17749;51.962;8.560;2023-01-31T10:21:05;100393.91;;;3.89;100.00
31096;BME280;17749;51.962;8.560;2023-01-31T10:23:40;100360.59;;;3.85;100.00
31096;BME280;17749;51.962;8.560;2023-01-31T10:26:18;100362.34;;;3.88;100.00
31096;BME280;17749;51.962;8.560;2023-01-31T10:29:38;100370.19;;;3.92;100.00
31096;BME280;17749;51.962;8.560;2023-01-31T10:31:51;100369.31;;;3.93;100.00
31096;BME280;17749;51.962;8.560;2023-01-31T10:34:29;100364.94;;;3.91;100.00
31096;BME280;17749;51.962;8.560;2023-01-31T10:37:00;100356.13;;;3.93;100.00
31096;BME280;17749;51.962;8.560;2023-01-31T10:39:32;100359.66;;;3.91;100.00
31096;BME280;17749;51.962;8.560;2023-01-31T10:44:50;100347.25;;;4.01;100.00
31096;BME280;17749;51.962;8.560;2023-01-31T10:47:18;100342.00;;;4.04;100.00
31096;BME280;17749;51.962;8.560;2023-01-31T10:49:47;100341.16;;;3.95;100.00
31096;BME280;17749;51.962;8.560;2023-01-31T10:52:41;100336.78;;;3.94;100.00
31096;BME280;17749;51.962;8.560;2023-01-31T10:55:27;100325.34;;;3.99;100.00
31096;BME280;17749;51.962;8.560;2023-01-31T10:57:56;100321.00;;;3.91;100.00
31096;BME280;17749;51.962;8.560;2023-01-31T11:00:30;100329.69;;;4.03;100.00
31096;BME280;17749;51.962;8.560;2023-01-31T11:02:57;100318.22;;;4.07;100.00
31096;BME280;17749;51.962;8.560;2023-01-31T11:05:27;100320.84;;;4.10;100.00
31096;BME280;17749;51.962;8.560;2023-01-31T11:08:00;100300.66;;;4.09;100.00
31096;BME280;17749;51.962;8.560;2023-01-31T11:10:30;100294.50;;;4.07;100.00
31096;BME280;17749;51.962;8.560;2023-01-31T11:13:01;100296.28;;;4.05;100.00
31096;BME280;17749;51.962;8.560;2023-01-31T11:15:39;100283.09;;;4.05;100.00
31096;BME280;17749;51.962;8.560;2023-01-31T11:18:14;100283.09;;;4.03;100.00
31096;BME280;17749;51.962;8.560;2023-01-31T11:20:48;100287.44;;;4.10;100.00
31096;BME280;17749;51.962;8.560;2023-01-31T11:23:16;100273.34;;;4.13;100.00
31096;BME280;17749;51.962;8.560;2023-01-31T11:25:48;100263.63;;;4.16;100.00
31096;BME280;17749;51.962;8.560;2023-01-31T11:28:32;100273.31;;;4.16;100.00
31096;BME280;17749;51.962;8.560;2023-01-31T11:31:03;100259.22;;;4.20;100.00
31096;BME280;17749;51.962;8.560;2023-01-31T11:33:44;100258.31;;;4.23;100.00
31096;BME280;17749;51.962;8.560;2023-01-31T11:36:17;100255.69;;;4.21;100.00
31096;BME280;17749;51.962;8.560;2023-01-31T11:38:49;100233.72;;;4.22;100.00
31096;BME280;17749;51.962;8.560;2023-01-31T11:41:35;100251.28;;;4.23;100.00
31096;BME280;17749;51.962;8.560;2023-01-31T11:44:07;100246.91;;;4.19;100.00
31096;BME280;17749;51.962;8.560;2023-01-31T11:46:45;100256.53;;;4.23;100.00
31096;BME280;17749;51.962;8.560;2023-01-31T11:49:18;100248.53;;;4.29;100.00
31096;BME280;17749;51.962;8.560;2023-01-31T11:51:47;100243.31;;;4.26;100.00
31096;BME280;17749;51.962;8.560;2023-01-31T11:54:21;100236.22;;;4.31;100.00
31096;BME280;17749;51.962;8.560;2023-01-31T11:56:50;100250.31;;;4.30;100.00
31096;BME280;17749;51.962;8.560;2023-01-31T11:59:20;100237.19;;;4.27;100.00
31096;BME280;17749;51.962;8.560;2023-01-31T12:01:50;100241.41;;;4.37;100.00
31096;BME280;17749;51.962;8.560;2023-01-31T12:04:34;100239.69;;;4.36;100.00
31096;BME280;17749;51.962;8.560;2023-01-31T12:07:20;100241.41;;;4.37;100.00
31096;BME280;17749;51.962;8.560;2023-01-31T12:09:48;100251.91;;;4.44;100.00
31096;BME280;17749;51.962;8.560;2023-01-31T12:12:29;100248.47;;;4.37;100.00
31096;BME280;17749;51.962;8.560;2023-01-31T12:15:03;100221.22;;;4.36;100.00
31096;BME280;17749;51.962;8.560;2023-01-31T12:17:38;100208.94;;;4.35;100.00
31096;BME280;17749;51.962;8.560;2023-01-31T12:20:22;100195.75;;;4.35;100.00
31096;BME280;17749;51.962;8.560;2023-01-31T12:28:44;100187.75;;;4.40;100.00
31096;BME280;17749;51.962;8.560;2023-01-31T12:31:28;100181.63;;;4.39;100.00
31096;BME280;17749;51.962;8.560;2023-01-31T12:43:02;100171.09;;;4.39;100.00
31096;BME280;17749;51.962;8.560;2023-01-31T12:45:40;100171.00;;;4.46;100.00
31096;BME280;17749;51.962;8.560;2023-01-31T12:51:15;100176.19;;;4.52;100.00
31096;BME280;17749;51.962;8.560;2023-01-31T12:57:16;100181.41;;;4.55;100.00
31096;BME280;17749;51.962;8.560;2023-01-31T12:59:52;100184.97;;;4.54;100.00
31096;BME280;17749;51.962;8.560;2023-01-31T13:02:36;100192.91;;;4.51;100.00
31096;BME280;17749;51.962;8.560;2023-01-31T13:08:26;100185.81;;;4.56;100.00
31096;BME280;17749;51.962;8.560;2023-01-31T13:10:57;100195.50;;;4.54;100.00
31096;BME280;17749;51.962;8.560;2023-01-31T13:13:37;100203.44;;;4.54;100.00
31096;BME280;17749;51.962;8.560;2023-01-31T13:16:14;100197.28;;;4.53;100.00
31096;BME280;17749;51.962;8.560;2023-01-31T13:18:42;100201.69;;;4.51;100.00
31096;BME280;17749;51.962;8.560;2023-01-31T13:21:15;100192.88;;;4.52;100.00
31096;BME280;17749;51.962;8.560;2023-01-31T13:23:47;100199.00;;;4.56;100.00
31096;BME280;17749;51.962;8.560;2023-01-31T13:26:21;100195.53;;;4.52;100.00
31096;BME280;17749;51.962;8.560;2023-01-31T13:28:56;100198.09;;;4.55;100.00
31096;BME280;17749;51.962;8.560;2023-01-31T13:31:40;100197.28;;;4.53;100.00
31096;BME280;17749;51.962;8.560;2023-01-31T13:34:13;100200.75;;;4.55;100.00
31096;BME280;17749;51.962;8.560;2023-01-31T13:36:47;100203.38;;;4.57;100.00
31096;BME280;17749;51.962;8.560;2023-01-31T13:39:21;100198.97;;;4.59;100.00
31096;BME280;17749;51.962;8.560;2023-01-31T13:41:49;100195.44;;;4.58;100.00
31096;BME280;17749;51.962;8.560;2023-01-31T13:44:16;100196.28;;;4.60;100.00
31096;BME280;17749;51.962;8.560;2023-01-31T13:46:51;100197.13;;;4.63;100.00
31096;BME280;17749;51.962;8.560;2023-01-31T13:49:34;100178.66;;;4.64;100.00
31096;BME280;17749;51.962;8.560;2023-01-31T13:52:11;100183.88;;;4.67;100.00
31096;BME280;17749;51.962;8.560;2023-01-31T13:54:55;100180.34;;;4.68;100.00
31096;BME280;17749;51.962;8.560;2023-01-31T13:57:30;100170.66;;;4.70;100.00
31096;BME280;17749;51.962;8.560;2023-01-31T14:00:42;100173.28;;;4.70;100.00
31096;BME280;17749;51.962;8.560;2023-01-31T14:03:12;100163.66;;;4.66;100.00
31096;BME280;17749;51.962;8.560;2023-01-31T14:10:54;100151.22;;;4.76;100.00
31096;BME280;17749;51.962;8.560;2023-01-31T14:13:39;100150.34;;;4.75;100.00
31096;BME280;17749;51.962;8.560;2023-01-31T14:16:34;100161.75;;;4.77;100.00
31096;BME280;17749;51.962;8.560;2023-01-31T14:19:04;100145.06;;;4.75;100.00
31096;BME280;17749;51.962;8.560;2023-01-31T14:21:55;100147.72;;;4.75;100.00
31096;BME280;17749;51.962;8.560;2023-01-31T14:27:27;100145.81;;;4.83;100.00
31096;BME280;17749;51.962;8.560;2023-01-31T14:39:06;100145.69;;;4.93;100.00
31096;BME280;17749;51.962;8.560;2023-01-31T14:44:47;100147.34;;;4.97;100.00
31096;BME280;17749;51.962;8.560;2023-01-31T14:58:17;100159.63;;;5.01;100.00
31096;BME280;17749;51.962;8.560;2023-01-31T15:00:53;100151.69;;;5.01;100.00
31096;BME280;17749;51.962;8.560;2023-01-31T15:03:25;100157.78;;;5.06;100.00
31096;BME280;17749;51.962;8.560;2023-01-31T15:06:04;100159.56;;;5.04;100.00
31096;BME280;17749;51.962;8.560;2023-01-31T15:08:36;100159.56;;;5.04;100.00
31096;BME280;17749;51.962;8.560;2023-01-31T15:11:10;100154.28;;;5.04;100.00
31096;BME280;17749;51.962;8.560;2023-01-31T15:13:53;100158.66;;;5.07;100.00
31096;BME280;17749;51.962;8.560;2023-01-31T15:16:26;100166.50;;;5.08;100.00
31096;BME280;17749;51.962;8.560;2023-01-31T15:18:59;100163.78;;;5.14;100.00
31096;BME280;17749;51.962;8.560;2023-01-31T15:21:33;100164.72;;;5.10;100.00
31096;BME280;17749;51.962;8.560;2023-01-31T15:24:04;100167.25;;;5.18;100.00
31096;BME280;17749;51.962;8.560;2023-01-31T15:26:33;100182.16;;;5.20;100.00
31096;BME280;17749;51.962;8.560;2023-01-31T15:29:01;100181.28;;;5.21;100.00
31096;BME280;17749;51.962;8.560;2023-01-31T15:31:39;100168.97;;;5.20;100.00
31096;BME280;17749;51.962;8.560;2023-01-31T15:34:15;100177.75;;;5.21;100.00
31096;BME280;17749;51.962;8.560;2023-01-31T15:36:55;100191.78;;;5.23;100.00
31096;BME280;17749;51.962;8.560;2023-01-31T15:39:46;100176.81;;;5.23;100.00
31096;BME280;17749;51.962;8.560;2023-01-31T15:42:21;100176.75;;;5.30;100.00
31096;BME280;17749;51.962;8.560;2023-01-31T15:44:50;100145.97;;;5.27;100.00
31096;BME280;17749;51.962;8.560;2023-01-31T15:47:21;100146.84;;;5.27;100.00
31096;BME280;17749;51.962;8.560;2023-01-31T15:49:49;100165.25;;;5.31;100.00
31096;BME280;17749;51.962;8.560;2023-01-31T15:52:20;100154.72;;;5.29;100.00
31096;BME280;17749;51.962;8.560;2023-01-31T15:54:56;100139.78;;;5.30;100.00
31096;BME280;17749;51.962;8.560;2023-01-31T15:57:27;100166.06;;;5.34;100.00
31096;BME280;17749;51.962;8.560;2023-01-31T15:59:58;100174.88;;;5.35;100.00
31096;BME280;17749;51.962;8.560;2023-01-31T16:02:28;100171.34;;;5.34;100.00
31096;BME280;17749;51.962;8.560;2023-01-31T16:04:56;100176.59;;;5.37;100.00
31096;BME280;17749;51.962;8.560;2023-01-31T16:07:26;100192.41;;;5.39;100.00
31096;BME280;17749;51.962;8.560;2023-01-31T16:09:56;100179.19;;;5.39;100.00
31096;BME280;17749;51.962;8.560;2023-01-31T16:12:24;100179.97;;;5.45;100.00
31096;BME280;17749;51.962;8.560;2023-01-31T16:14:56;100186.19;;;5.43;100.00
31096;BME280;17749;51.962;8.560;2023-01-31T16:17:26;100181.72;;;5.46;100.00
31096;BME280;17749;51.962;8.560;2023-01-31T16:19:54;100188.75;;;5.46;100.00
31096;BME280;17749;51.962;8.560;2023-01-31T16:22:29;100184.28;;;5.51;100.00
31096;BME280;17749;51.962;8.560;2023-01-31T16:24:59;100188.66;;;5.52;100.00
31096;BME280;17749;51.962;8.560;2023-01-31T16:27:30;100188.66;;;5.52;100.00
31096;BME280;17749;51.962;8.560;2023-01-31T16:29:59;100190.41;;;5.53;100.00
31096;BME280;17749;51.962;8.560;2023-01-31T16:35:07;100179.00;;;5.49;100.00
31096;BME280;17749;51.962;8.560;2023-01-31T16:37:45;100181.50;;;5.57;100.00
31096;BME280;17749;51.962;8.560;2023-01-31T16:40:21;100177.16;;;5.55;100.00
31096;BME280;17749;51.962;8.560;2023-01-31T16:43:08;100171.00;;;5.56;100.00
31096;BME280;17749;51.962;8.560;2023-01-31T16:45:35;100169.22;;;5.56;100.00
31096;BME280;17749;51.962;8.560;2023-01-31T16:48:26;100169.28;;;5.53;100.00
31096;BME280;17749;51.962;8.560;2023-01-31T16:50:56;100183.34;;;5.54;100.00
31096;BME280;17749;51.962;8.560;2023-01-31T16:53:33;100183.28;;;5.58;100.00
31096;BME280;17749;51.962;8.560;2023-01-31T16:58:54;100201.69;;;5.61;100.00
31096;BME280;17749;51.962;8.560;2023-01-31T17:01:24;100203.50;;;5.58;100.00
31096;BME280;17749;51.962;8.560;2023-01-31T17:06:34;100214.84;;;5.66;100.00
31096;BME280;17749;51.962;8.560;2023-01-31T17:09:03;100214.91;;;5.61;100.00
31096;BME280;17749;51.962;8.560;2023-01-31T17:11:32;100225.41;;;5.64;100.00
31096;BME280;17749;51.962;8.560;2023-01-31T17:14:09;100227.16;;;5.65;100.00
31096;BME280;17749;51.962;8.560;2023-01-31T17:16:36;100227.22;;;5.62;100.00
31096;BME280;17749;51.962;8.560;2023-01-31T17:19:03;100231.63;;;5.63;100.00
31096;BME280;17749;51.962;8.560;2023-01-31T17:21:35;100227.16;;;5.65;100.00
31096;BME280;17749;51.962;8.560;2023-01-31T17:24:03;100226.22;;;5.68;100.00
31096;BME280;17749;51.962;8.560;2023-01-31T17:26:30;100221.81;;;5.68;100.00
31096;BME280;17749;51.962;8.560;2023-01-31T17:28:57;100220.94;;;5.68;100.00
31096;BME280;17749;51.962;8.560;2023-01-31T17:31:28;100218.28;;;5.69;100.00
31096;BME280;17749;51.962;8.560;2023-01-31T17:33:57;100218.22;;;5.71;100.00
31096;BME280;17749;51.962;8.560;2023-01-31T17:36:24;100216.44;;;5.75;100.00
31096;BME280;17749;51.962;8.560;2023-01-31T17:38:51;100217.28;;;5.77;100.00
31096;BME280;17749;51.962;8.560;2023-01-31T17:41:20;100225.13;;;5.80;100.00
31096;BME280;17749;51.962;8.560;2023-01-31T17:43:50;100214.66;;;5.74;100.00
31096;BME280;17749;51.962;8.560;2023-01-31T17:46:17;100211.94;;;5.78;100.00
31096;BME280;17749;51.962;8.560;2023-01-31T17:48:44;100213.72;;;5.78;100.00
31096;BME280;17749;51.962;8.560;2023-01-31T17:51:12;100219.91;;;5.77;100.00
31096;BME280;17749;51.962;8.560;2023-01-31T17:53:39;100226.06;;;5.77;100.00
31096;BME280;17749;51.962;8.560;2023-01-31T17:56:16;100219.91;;;5.77;100.00
31096;BME280;17749;51.962;8.560;2023-01-31T17:58:44;100214.56;;;5.80;100.00
31096;BME280;17749;51.962;8.560;2023-01-31T18:01:11;100229.56;;;5.79;100.00
31096;BME280;17749;51.962;8.560;2023-01-31T18:03:40;100229.50;;;5.81;100.00
31096;BME280;17749;51.962;8.560;2023-01-31T18:06:08;100227.78;;;5.78;100.00
31096;BME280;17749;51.962;8.560;2023-01-31T18:08:36;100232.22;;;5.78;100.00
31096;BME280;17749;51.962;8.560;2023-01-31T18:11:09;100235.72;;;5.80;100.00
31096;BME280;17749;51.962;8.560;2023-01-31T18:13:37;100222.66;;;5.70;100.00
31096;BME280;17749;51.962;8.560;2023-01-31T18:16:08;100230.50;;;5.77;100.00
31096;BME280;17749;51.962;8.560;2023-01-31T18:18:39;100237.50;;;5.78;100.00
31096;BME280;17749;51.962;8.560;2023-01-31T18:21:10;100225.22;;;5.74;100.00
31096;BME280;17749;51.962;8.560;2023-01-31T18:23:37;100228.78;;;5.72;100.00
31096;BME280;17749;51.962;8.560;2023-01-31T18:26:06;100235.00;;;5.68;100.00
31096;BME280;17749;51.962;8.560;2023-01-31T18:28:33;100227.16;;;5.65;100.00
31096;BME280;17749;51.962;8.560;2023-01-31T18:31:04;100242.94;;;5.68;100.00
31096;BME280;17749;51.962;8.560;2023-01-31T18:33:33;100236.94;;;5.60;100.00
31096;BME280;17749;51.962;8.560;2023-01-31T18:36:00;100236.03;;;5.61;100.00
31096;BME280;17749;51.962;8.560;2023-01-31T18:38:28;100229.91;;;5.59;100.00
31096;BME280;17749;51.962;8.560;2023-01-31T18:40:55;100229.00;;;5.60;100.00
31096;BME280;17749;51.962;8.560;2023-01-31T18:43:22;100229.97;;;5.55;100.00
31096;BME280;17749;51.962;8.560;2023-01-31T18:45:49;100228.25;;;5.54;100.00
31096;BME280;17749;51.962;8.560;2023-01-31T18:48:16;100220.47;;;5.46;100.00
31096;BME280;17749;51.962;8.560;2023-01-31T18:50:43;100228.34;;;5.47;100.00
31096;BME280;17749;51.962;8.560;2023-01-31T18:53:09;100225.75;;;5.46;100.00
31096;BME280;17749;51.962;8.560;2023-01-31T18:55:36;100229.28;;;5.45;100.00
31096;BME280;17749;51.962;8.560;2023-01-31T18:58:03;100225.75;;;5.46;100.00
31096;BME280;17749;51.962;8.560;2023-01-31T19:00:30;100229.28;;;5.45;100.00
31096;BME280;17749;51.962;8.560;2023-01-31T19:02:58;100231.94;;;5.45;100.00
31096;BME280;17749;51.962;8.560;2023-01-31T19:05:24;100236.41;;;5.40;100.00
31096;BME280;17749;51.962;8.560;2023-01-31T19:07:51;100246.94;;;5.43;100.00
31096;BME280;17749;51.962;8.560;2023-01-31T19:10:20;100242.56;;;5.40;100.00
31096;BME280;17749;51.962;8.560;2023-01-31T19:12:46;100239.03;;;5.41;100.00
31096;BME280;17749;51.962;8.560;2023-01-31T19:15:13;100245.13;;;5.45;100.00
31096;BME280;17749;51.962;8.560;2023-01-31T19:17:40;100238.16;;;5.39;100.00
31096;BME280;17749;51.962;8.560;2023-01-31T19:20:09;100240.78;;;5.41;100.00
31096;BME280;17749;51.962;8.560;2023-01-31T19:22:36;100240.00;;;5.36;100.00
31096;BME280;17749;51.962;8.560;2023-01-31T19:25:04;100243.50;;;5.38;100.00
31096;BME280;17749;51.962;8.560;2023-01-31T19:27:34;100241.72;;;5.40;100.00
31096;BME280;17749;51.962;8.560;2023-01-31T19:30:01;100242.63;;;5.36;100.00
31096;BME280;17749;51.962;8.560;2023-01-31T19:32:28;100248.78;;;5.36;100.00
31096;BME280;17749;51.962;8.560;2023-01-31T19:34:56;100245.28;;;5.36;100.00
31096;BME280;17749;51.962;8.560;2023-01-31T19:37:23;100246.19;;;5.33;100.00
31096;BME280;17749;51.962;8.560;2023-01-31T19:39:50;100251.47;;;5.33;100.00
31096;BME280;17749;51.962;8.560;2023-01-31T19:42:19;100252.41;;;5.29;100.00
31096;BME280;17749;51.962;8.560;2023-01-31T19:44:47;100249.84;;;5.26;100.00
31096;BME280;17749;51.962;8.560;2023-01-31T19:47:14;100256.03;;;5.23;100.00
31096;BME280;17749;51.962;8.560;2023-01-31T19:49:41;100249.94;;;5.21;100.00
31096;BME280;17749;51.962;8.560;2023-01-31T19:52:08;100255.28;;;5.17;100.00
31096;BME280;17749;51.962;8.560;2023-01-31T19:54:35;100258.03;;;5.09;100.00
31096;BME280;17749;51.962;8.560;2023-01-31T19:57:04;100251.03;;;5.05;100.00
31096;BME280;17749;51.962;8.560;2023-01-31T19:59:31;100259.88;;;5.04;100.00
31096;BME280;17749;51.962;8.560;2023-01-31T20:01:59;100267.84;;;5.01;100.00
31096;BME280;17749;51.962;8.560;2023-01-31T20:04:26;100274.03;;;4.97;100.00
31096;BME280;17749;51.962;8.560;2023-01-31T20:06:54;100267.06;;;4.93;100.00
31096;BME280;17749;51.962;8.560;2023-01-31T20:09:21;100268.91;;;4.88;100.00
31096;BME280;17749;51.962;8.560;2023-01-31T20:11:48;100262.00;;;4.77;100.00
31096;BME280;17749;51.962;8.560;2023-01-31T20:14:16;100272.56;;;4.77;100.00
31096;BME280;17749;51.962;8.560;2023-01-31T20:16:43;100279.63;;;4.75;100.00
31096;BME280;17749;51.962;8.560;2023-01-31T20:19:10;100275.25;;;4.71;100.00
31096;BME280;17749;51.962;8.560;2023-01-31T20:21:37;100273.53;;;4.69;100.00
31096;BME280;17749;51.962;8.560;2023-01-31T20:24:05;100281.53;;;4.64;100.00
31096;BME280;17749;51.962;8.560;2023-01-31T20:26:44;100283.38;;;4.59;100.00
31096;BME280;17749;51.962;8.560;2023-01-31T20:29:11;100284.28;;;4.55;100.00
31096;BME280;17749;51.962;8.560;2023-01-31T20:31:38;100290.50;;;4.51;100.00